createdAt,value
2023-01-13T00:01:41.903Z,78.77
2023-01-13T00:06:41.744Z,78.73
2023-01-13T00:11:41.160Z,78.65
2023-01-13T00:16:40.313Z,78.82
2023-01-13T00:21:39.367Z,78.80
2023-01-13T00:26:38.471Z,78.77
2023-01-13T00:31:37.994Z,78.85
2023-01-13T00:36:37.315Z,78.94
2023-01-13T00:41:50.089Z,79.03
2023-01-13T00:46:49.323Z,79.05
2023-01-13T00:51:48.906Z,79.29
2023-01-13T00:56:48.296Z,79.44
2023-01-13T01:01:47.870Z,79.53
2023-01-13T01:06:47.129Z,79.65
2023-01-13T01:11:46.861Z,80.05
2023-01-13T01:16:46.616Z,80.41
2023-01-13T01:21:45.304Z,81.26
2023-01-13T01:26:44.737Z,81.02
2023-01-13T01:31:44.900Z,81.66
2023-01-13T01:36:44.403Z,81.77
2023-01-13T01:42:03.684Z,82.19
2023-01-13T01:47:05.079Z,82.47
2023-01-13T01:52:10.642Z,82.76
2023-01-13T01:57:17.165Z,82.97
2023-01-13T02:02:17.771Z,83.15
2023-01-13T02:07:17.924Z,83.27
2023-01-13T02:12:33.336Z,83.61
2023-01-13T02:17:53.150Z,83.73
2023-01-13T02:24:22.745Z,83.77
2023-01-13T02:30:05.953Z,83.98
2023-01-13T02:35:15.995Z,83.89
2023-01-13T02:40:26.502Z,84.26
2023-01-13T02:45:33.877Z,84.25
2023-01-13T02:50:40.912Z,84.26
2023-01-13T02:55:47.911Z,84.55
2023-01-13T03:00:49.628Z,84.65
2023-01-13T03:05:53.721Z,84.76
2023-01-13T03:11:05.417Z,84.97
2023-01-13T03:16:18.442Z,84.92
2023-01-13T03:21:27.261Z,84.93
2023-01-13T03:26:37.511Z,85.25
2023-01-13T03:31:45.533Z,85.18
2023-01-13T03:36:47.560Z,84.90
2023-01-13T03:41:54.814Z,85.01
2023-01-13T03:47:05.176Z,85.39
2023-01-13T03:52:10.072Z,85.41
2023-01-13T03:57:14.741Z,85.54
2023-01-13T04:02:26.185Z,85.64
2023-01-13T04:07:39.139Z,85.73
2023-01-13T04:13:05.322Z,86.01
2023-01-13T04:18:22.039Z,86.66
2023-01-13T04:23:23.043Z,86.90
2023-01-13T04:28:23.833Z,86.69
2023-01-13T04:33:23.661Z,86.78
2023-01-13T04:38:24.581Z,86.88
2023-01-13T04:43:23.610Z,87.21
2023-01-13T04:48:22.830Z,87.67
2023-01-13T04:53:22.195Z,88.11
2023-01-13T04:58:22.730Z,88.14
2023-01-13T05:03:21.776Z,88.16
2023-01-13T05:08:21.132Z,87.94
2023-01-13T05:13:38.344Z,88.05
2023-01-13T05:18:38.286Z,88.19
2023-01-13T05:23:55.827Z,88.14
2023-01-13T05:28:55.162Z,88.02
2023-01-13T05:33:53.964Z,88.03
2023-01-13T05:38:54.506Z,88.35
2023-01-13T05:43:54.348Z,88.36
2023-01-13T05:48:54.027Z,88.31
2023-01-13T05:53:54.877Z,88.43
2023-01-13T05:58:55.641Z,88.76
2023-01-13T06:04:01.447Z,88.99
2023-01-13T06:09:03.639Z,89.14
2023-01-13T06:14:04.683Z,89.35
2023-01-13T06:19:09.332Z,89.22
2023-01-13T06:24:13.260Z,89.12
2023-01-13T06:29:16.940Z,89.41
2023-01-13T06:34:19.428Z,89.80
2023-01-13T06:39:24.469Z,89.91
2023-01-13T06:44:26.646Z,90.38
2023-01-13T06:49:25.508Z,90.33
2023-01-13T06:54:26.347Z,90.24
2023-01-13T06:59:27.432Z,90.07
2023-01-13T07:04:27.556Z,90.25
2023-01-13T07:09:27.000Z,90.23
2023-01-13T07:14:44.053Z,90.23
2023-01-13T07:19:44.253Z,90.14
2023-01-13T07:24:46.132Z,90.11
2023-01-13T07:29:46.352Z,90.28
2023-01-13T07:34:45.985Z,89.96
2023-01-13T07:39:46.706Z,90.15
2023-01-13T07:44:46.091Z,90.25
2023-01-13T07:49:47.339Z,90.24
2023-01-13T07:54:46.624Z,90.38
2023-01-13T07:59:46.250Z,90.06
2023-01-13T08:04:45.238Z,90.31
2023-01-13T08:09:45.012Z,90.42
2023-01-13T08:14:45.259Z,90.29
2023-01-13T08:19:44.320Z,90.28
2023-01-13T08:24:43.632Z,90.25
2023-01-13T08:29:42.469Z,90.21
2023-01-13T08:34:43.210Z,90.13
2023-01-13T08:39:42.165Z,90.21
2023-01-13T08:44:42.029Z,90.55
2023-01-13T08:49:41.235Z,90.44
2023-01-13T08:54:43.152Z,90.36
2023-01-13T08:59:44.589Z,90.35
2023-01-13T09:04:44.794Z,90.43
2023-01-13T09:09:44.963Z,90.19
2023-01-13T09:14:44.695Z,90.31
2023-01-13T09:19:44.635Z,90.38
2023-01-13T09:24:43.606Z,90.21
2023-01-13T09:29:43.433Z,90.15
2023-01-13T09:35:03.106Z,89.93
2023-01-13T09:40:03.183Z,89.78
2023-01-13T09:45:12.581Z,89.58
2023-01-13T09:50:34.979Z,89.48
2023-01-13T09:55:39.429Z,89.17
2023-01-13T10:00:47.357Z,89.13
2023-01-13T10:05:57.528Z,89.16
2023-01-13T10:11:01.375Z,89.04
2023-01-13T10:16:26.497Z,88.84
2023-01-13T10:21:56.114Z,88.54
2023-01-13T10:27:05.036Z,88.62
2023-01-13T10:32:05.401Z,88.35
2023-01-13T10:37:07.682Z,88.19
2023-01-13T10:42:14.416Z,87.78
2023-01-13T10:47:27.197Z,87.67
2023-01-13T10:52:33.662Z,87.16
2023-01-13T10:57:39.717Z,86.84
2023-01-13T11:02:40.433Z,86.70
2023-01-13T11:07:42.918Z,85.97
2023-01-13T11:12:55.110Z,85.53
2023-01-13T11:18:03.143Z,85.43
2023-01-13T11:23:12.800Z,84.77
2023-01-13T11:28:40.160Z,84.18
2023-01-13T11:33:49.408Z,84.09
2023-01-13T11:38:55.285Z,83.94
2023-01-13T11:44:00.953Z,83.89
2023-01-13T11:49:01.632Z,83.25
2023-01-13T11:54:28.088Z,82.81
2023-01-13T11:59:56.395Z,82.25
2023-01-13T12:05:10.470Z,81.97
2023-01-13T12:10:19.408Z,81.85
2023-01-13T12:16:02.835Z,81.98
2023-01-13T12:21:20.631Z,81.66
2023-01-13T12:26:22.036Z,81.46
2023-01-13T12:31:24.156Z,81.22
2023-01-13T12:36:36.247Z,80.99
2023-01-13T12:42:00.537Z,81.46
2023-01-13T12:47:03.248Z,81.19
2023-01-13T12:52:22.263Z,81.22
2023-01-13T12:57:28.354Z,80.88
2023-01-13T13:02:42.263Z,80.79
2023-01-13T13:07:49.670Z,81.06
2023-01-13T13:13:23.563Z,81.08
2023-01-13T13:18:35.692Z,81.24
2023-01-13T13:24:05.711Z,81.40
2023-01-13T13:29:35.590Z,81.41
2023-01-13T13:34:48.270Z,81.17
2023-01-13T13:40:06.404Z,80.85
2023-01-13T13:45:35.291Z,80.86
2023-01-13T13:50:35.251Z,80.95
2023-01-13T13:55:35.633Z,80.62
2023-01-13T14:00:39.803Z,80.60
2023-01-13T14:05:41.141Z,80.72
2023-01-13T14:10:45.486Z,80.77
2023-01-13T14:15:46.050Z,80.55
2023-01-13T14:20:53.727Z,80.31
2023-01-13T14:25:54.884Z,80.46
2023-01-13T14:30:55.583Z,80.65
2023-01-13T14:36:19.338Z,80.51
2023-01-13T14:41:27.046Z,80.26
2023-01-13T14:46:27.214Z,80.24
2023-01-13T14:51:32.941Z,80.42
2023-01-13T14:56:55.341Z,80.48
2023-01-13T15:01:55.648Z,80.52
2023-01-13T15:06:58.784Z,80.53
2023-01-13T15:11:59.003Z,80.60
2023-01-13T15:16:59.005Z,80.62
2023-01-13T15:21:58.032Z,80.51
2023-01-13T15:26:57.775Z,80.55
2023-01-13T15:31:58.581Z,80.75
2023-01-13T15:36:58.063Z,80.76
2023-01-13T15:42:15.637Z,80.83
2023-01-13T15:47:17.649Z,80.86
2023-01-13T15:52:26.018Z,80.90
2023-01-13T15:57:29.329Z,80.75
2023-01-13T16:02:29.972Z,80.86
2023-01-13T16:07:30.105Z,80.82
2023-01-13T16:12:29.915Z,80.90
2023-01-13T16:17:32.282Z,81.01
2023-01-13T16:22:32.650Z,81.20
2023-01-13T16:27:32.044Z,81.34
2023-01-13T16:32:51.130Z,81.59
2023-01-13T16:37:51.239Z,81.74
2023-01-13T16:42:52.315Z,81.77
2023-01-13T16:47:51.959Z,81.84
2023-01-13T16:52:51.428Z,81.89
2023-01-13T16:57:52.440Z,82.05
2023-01-13T17:02:52.472Z,82.11
2023-01-13T17:07:52.443Z,82.15
2023-01-13T17:12:52.277Z,82.26
2023-01-13T17:17:53.098Z,82.35
2023-01-13T17:22:58.265Z,82.41
2023-01-13T17:27:58.882Z,82.41
2023-01-13T17:32:58.271Z,82.48
2023-01-13T17:37:58.068Z,82.57
2023-01-13T17:42:57.591Z,82.63
2023-01-13T17:48:00.481Z,82.66
2023-01-13T17:52:59.946Z,82.69
2023-01-13T17:58:02.402Z,82.75
2023-01-13T18:03:02.056Z,82.81
2023-01-13T18:08:01.216Z,82.91
2023-01-13T18:13:00.484Z,83.01
2023-01-13T18:18:00.505Z,83.24
2023-01-13T18:23:18.035Z,83.42
2023-01-13T18:28:17.204Z,83.73
2023-01-13T18:33:16.149Z,84.03
2023-01-13T18:38:15.891Z,84.26
2023-01-13T18:43:15.704Z,84.44
2023-01-13T18:48:16.676Z,84.66
2023-01-13T18:53:17.180Z,84.70
2023-01-13T18:58:20.499Z,84.85
2023-01-13T19:03:30.099Z,85.15
2023-01-13T19:08:33.866Z,85.26
2023-01-13T19:13:33.219Z,85.40
2023-01-13T19:18:35.842Z,85.64
2023-01-13T19:23:35.729Z,86.02
2023-01-13T19:28:35.545Z,86.12
2023-01-13T19:33:39.255Z,86.16
2023-01-13T19:38:45.379Z,86.35
2023-01-13T19:44:03.383Z,86.49
2023-01-13T19:49:03.053Z,86.36
2023-01-13T19:54:03.062Z,86.39
2023-01-13T19:59:14.523Z,86.51
2023-01-13T20:04:17.264Z,86.60
2023-01-13T20:09:17.513Z,86.69
2023-01-13T20:14:17.662Z,86.86
2023-01-13T20:19:17.405Z,86.88
2023-01-13T20:24:20.200Z,86.94
2023-01-13T20:29:18.913Z,87.61
2023-01-13T20:34:19.989Z,87.66
2023-01-13T20:39:22.773Z,87.51
2023-01-13T20:44:22.930Z,87.55
2023-01-13T20:49:24.829Z,87.40
2023-01-13T20:54:26.061Z,86.98
2023-01-13T20:59:25.110Z,86.46
2023-01-13T21:04:24.843Z,86.00
2023-01-13T21:09:26.850Z,85.85
2023-01-13T21:14:46.419Z,85.55
2023-01-13T21:19:45.867Z,85.25
2023-01-13T21:24:45.321Z,85.11
2023-01-13T21:29:44.793Z,85.12
2023-01-13T21:34:45.005Z,84.92
2023-01-13T21:39:45.077Z,84.86
2023-01-13T21:45:01.499Z,84.82
2023-01-13T21:50:00.698Z,84.62
2023-01-13T21:55:13.394Z,84.55
2023-01-13T22:00:21.646Z,84.37
2023-01-13T22:05:26.521Z,84.33
2023-01-13T22:10:30.028Z,84.27
2023-01-13T22:15:31.496Z,84.26
2023-01-13T22:20:31.178Z,84.26
2023-01-13T22:25:30.601Z,84.21
2023-01-13T22:30:32.479Z,84.14
2023-01-13T22:35:32.437Z,84.15
2023-01-13T22:40:31.758Z,84.23
2023-01-13T22:45:31.957Z,84.25
2023-01-13T22:50:31.169Z,84.22
2023-01-13T22:55:30.805Z,84.25
2023-01-13T23:00:30.385Z,84.20
2023-01-13T23:05:31.571Z,84.20
2023-01-13T23:10:31.041Z,84.20
2023-01-13T23:15:31.081Z,84.13
2023-01-13T23:20:31.131Z,84.10
2023-01-13T23:25:30.626Z,84.02
2023-01-13T23:30:30.191Z,84.01
2023-01-13T23:35:30.541Z,83.96
2023-01-13T23:40:30.118Z,84.02
2023-01-13T23:45:29.244Z,83.87
2023-01-13T23:50:28.785Z,83.84
2023-01-13T23:55:28.656Z,83.75
